LFBG/CNG METAR and TAF weather

Enter ICAO airport designator
Station Type Date Time Source
LFBG METAR 2020/09/20 14:30 UTC NOAA

LFBG 201430Z AUTO VRB02KT 9999 FEW044 OVC056 24/15 Q1014


Station Type Date Time Source
LFBG Decoded METAR 2020/09/20 14:30 UTC NOAA

Cognac, France (LFBG) 45-40N 000-19W 31M
Sep 20, 2020 - 10:30 AM EDT / 2020.09.20 1430 UTC
Wind: Variable at 2 MPH (2 KT):0
Visibility: greater than 7 mile(s):0
Sky conditions: overcast
Temperature: 75 F (24 C)
Dew Point: 59 F (15 C)
Relative Humidity: 57%
Pressure (altimeter): 29.94 in. Hg (1014 hPa)
ob: LFBG 201430Z AUTO VRB02KT 9999 FEW044 OVC056 24/15 Q1014
cycle: 14

Station Type Date Time Source
LFBG TAF 2020/09/18 13:52 UTC NOAA

TAF LFBG 181345Z 1813/1909 CNL

Example: see airport list